createdAt,value
2019-02-17T00:02:30.030Z,100343.58
2019-02-17T00:05:00.421Z,100347.28
2019-02-17T00:07:31.450Z,100347.28
2019-02-17T00:10:01.992Z,100346.73
2019-02-17T00:12:32.456Z,100348.10
2019-02-17T00:15:02.993Z,100347.96
2019-02-17T00:17:33.520Z,100355.28
2019-02-17T00:20:04.341Z,100345.56
2019-02-17T00:22:34.906Z,100349.67
2019-02-17T00:25:05.936Z,100347.27
2019-02-17T00:27:36.231Z,100348.91
2019-02-17T00:30:06.932Z,100348.45
2019-02-17T00:32:37.337Z,100348.39
2019-02-17T00:35:08.440Z,100348.93
2019-02-17T00:37:40.591Z,100341.84
2019-02-17T00:40:11.523Z,100341.63
2019-02-17T00:42:42.051Z,100343.13
2019-02-17T00:45:13.011Z,100350.97
2019-02-17T00:47:43.839Z,100351.96
2019-02-17T00:50:14.661Z,100349.63
2019-02-17T00:52:45.364Z,100350.06
2019-02-17T00:55:16.202Z,100349.56
2019-02-17T00:57:46.760Z,100348.13
2019-02-17T01:00:17.705Z,100348.27
2019-02-17T01:02:48.296Z,100346.66
2019-02-17T01:05:18.835Z,100354.67
2019-02-17T01:07:49.256Z,100346.29
2019-02-17T01:10:19.864Z,100346.06
2019-02-17T01:12:50.270Z,100346.05
2019-02-17T01:15:20.684Z,100352.30
2019-02-17T01:17:51.138Z,100346.99
2019-02-17T01:20:21.647Z,100350.49
2019-02-17T01:22:52.396Z,100351.25
2019-02-17T01:25:23.426Z,100351.45
2019-02-17T01:27:54.303Z,100353.66
2019-02-17T01:30:25.193Z,100349.86
2019-02-17T01:32:55.673Z,100340.91
2019-02-17T01:35:26.174Z,100339.13
2019-02-17T01:37:58.316Z,100332.67
2019-02-17T01:40:28.876Z,100337.64
2019-02-17T01:42:59.442Z,100334.30
2019-02-17T01:45:29.852Z,100339.41
2019-02-17T01:48:00.222Z,100336.94
2019-02-17T01:50:30.793Z,100346.27
2019-02-17T01:53:01.462Z,100344.56
2019-02-17T01:55:31.993Z,100345.54
2019-02-17T01:58:02.525Z,100346.36
2019-02-17T02:00:33.244Z,100339.63
2019-02-17T02:03:03.733Z,100344.72
2019-02-17T02:05:34.207Z,100344.92
2019-02-17T02:08:04.701Z,100344.08
2019-02-17T02:10:35.181Z,100343.53
2019-02-17T02:13:05.777Z,100342.59
2019-02-17T02:15:36.271Z,100344.59
2019-02-17T02:18:06.982Z,100335.09
2019-02-17T02:20:37.500Z,100334.70
2019-02-17T02:23:07.992Z,100340.27
2019-02-17T02:25:38.542Z,100335.58
2019-02-17T02:28:10.659Z,100334.91
2019-02-17T02:30:42.931Z,100335.98
2019-02-17T02:33:15.506Z,100329.88
2019-02-17T02:35:47.769Z,100330.34
2019-02-17T02:38:20.040Z,100330.03
2019-02-17T02:40:52.000Z,100330.67
2019-02-17T02:43:24.060Z,100326.58
2019-02-17T02:45:56.945Z,100334.98
2019-02-17T02:48:29.424Z,100337.26
2019-02-17T02:51:01.891Z,100330.41
2019-02-17T02:53:34.159Z,100332.36
2019-02-17T02:56:06.426Z,100335.41
2019-02-17T02:58:38.698Z,100328.31
2019-02-17T03:01:12.084Z,100335.89
2019-02-17T03:03:45.981Z,100340.59
2019-02-17T03:06:34.954Z,100344.64
2019-02-17T03:09:07.942Z,100334.94
2019-02-17T03:11:40.110Z,100341.11
2019-02-17T03:14:12.372Z,100343.36
2019-02-17T03:16:45.051Z,100350.00
2019-02-17T03:19:17.224Z,100348.97
2019-02-17T03:21:49.484Z,100344.35
2019-02-17T03:24:22.070Z,100352.17
2019-02-17T03:26:54.638Z,100345.23
2019-02-17T03:29:27.012Z,100350.29
2019-02-17T03:31:59.703Z,100350.35
2019-02-17T03:34:32.058Z,100350.14
2019-02-17T03:37:04.517Z,100350.44
2019-02-17T03:39:36.798Z,100349.59
2019-02-17T03:42:09.178Z,100349.95
2019-02-17T03:44:41.640Z,100349.22
2019-02-17T03:47:14.113Z,100348.00
2019-02-17T03:49:46.378Z,100354.39
2019-02-17T03:52:18.753Z,100354.12
2019-02-17T03:54:50.920Z,100354.19
2019-02-17T03:57:23.186Z,100355.83
2019-02-17T03:59:55.662Z,100355.83
2019-02-17T04:02:28.128Z,100356.95
2019-02-17T04:04:59.988Z,100350.38
2019-02-17T04:07:32.153Z,100361.44
2019-02-17T04:10:04.628Z,100358.56
2019-02-17T04:12:37.099Z,100360.72
2019-02-17T04:15:09.474Z,100362.36
2019-02-17T04:17:41.740Z,100361.75
2019-02-17T04:20:14.212Z,100363.63
2019-02-17T04:22:46.374Z,100360.62
2019-02-17T04:25:18.650Z,100362.31
2019-02-17T04:27:51.121Z,100364.66
2019-02-17T04:30:29.433Z,100368.14
2019-02-17T04:32:57.703Z,100368.27
2019-02-17T04:35:29.868Z,100365.58
2019-02-17T04:38:02.137Z,100365.14
2019-02-17T04:40:34.097Z,100361.20
2019-02-17T04:43:06.464Z,100361.03
2019-02-17T04:45:38.632Z,100367.54
2019-02-17T04:48:11.004Z,100364.19
2019-02-17T04:50:43.888Z,100358.16
2019-02-17T04:53:16.255Z,100372.17
2019-02-17T04:55:48.420Z,100367.84
2019-02-17T04:58:20.999Z,100367.80
2019-02-17T05:00:53.690Z,100375.72
2019-02-17T05:03:26.148Z,100378.72
2019-02-17T05:05:58.420Z,100378.93
2019-02-17T05:08:30.684Z,100380.82
2019-02-17T05:11:02.750Z,100382.14
2019-02-17T05:13:35.223Z,100366.88
2019-02-17T05:16:07.499Z,100366.16
2019-02-17T05:18:39.758Z,100370.50
2019-02-17T05:21:12.334Z,100374.02
2019-02-17T05:23:44.704Z,100376.22
2019-02-17T05:26:16.880Z,100379.13
2019-02-17T05:28:49.034Z,100381.02
2019-02-17T05:31:21.408Z,100374.06
2019-02-17T05:33:53.673Z,100382.40
2019-02-17T05:36:25.948Z,100385.11
2019-02-17T05:38:59.128Z,100381.52
2019-02-17T05:41:31.395Z,100381.77
2019-02-17T05:44:03.878Z,100386.58
2019-02-17T05:46:36.655Z,100390.45
2019-02-17T05:49:09.329Z,100390.75
2019-02-17T05:51:42.119Z,100394.62
2019-02-17T05:54:14.385Z,100399.41
2019-02-17T05:56:46.646Z,100395.31
2019-02-17T05:59:19.429Z,100399.67
2019-02-17T06:01:52.109Z,100407.92
2019-02-17T06:04:24.168Z,100408.44
2019-02-17T06:06:56.437Z,100403.53
2019-02-17T06:09:28.908Z,100408.63
2019-02-17T06:12:00.978Z,100408.00
2019-02-17T06:14:33.034Z,100408.12
2019-02-17T06:17:05.509Z,100408.39
2019-02-17T06:19:37.677Z,100412.94
2019-02-17T06:22:10.146Z,100413.80
2019-02-17T06:24:42.314Z,100408.92
2019-02-17T06:27:14.376Z,100413.55
2019-02-17T06:29:49.023Z,100407.23
2019-02-17T06:32:20.755Z,100403.32
2019-02-17T06:38:53.367Z,100390.00
2019-02-17T06:45:25.510Z,100388.17
2019-02-17T06:51:52.413Z,100389.84
2019-02-17T06:57:04.242Z,100410.19
2019-02-17T06:59:34.947Z,100419.55
2019-02-17T07:02:05.498Z,100411.55
2019-02-17T07:04:54.832Z,100410.42
2019-02-17T07:07:25.462Z,100409.44
2019-02-17T07:09:56.862Z,100406.16
2019-02-17T07:12:28.338Z,100406.84
2019-02-17T07:14:58.765Z,100404.69
2019-02-17T07:17:29.175Z,100418.45
2019-02-17T07:20:00.517Z,100426.66
2019-02-17T07:22:31.270Z,100426.49
2019-02-17T07:25:01.784Z,100428.27
2019-02-17T07:27:32.618Z,100420.69
2019-02-17T07:30:03.168Z,100426.44
2019-02-17T07:32:33.680Z,100425.77
2019-02-17T07:35:04.450Z,100425.62
2019-02-17T07:37:34.946Z,100426.48
2019-02-17T07:40:06.247Z,100423.64
2019-02-17T07:42:36.838Z,100421.39
2019-02-17T07:45:07.648Z,100425.05
2019-02-17T07:47:38.306Z,100424.25
2019-02-17T07:50:10.975Z,100430.39
2019-02-17T07:52:41.708Z,100432.07
2019-02-17T07:55:12.506Z,100427.39
2019-02-17T07:57:43.226Z,100424.08
2019-02-17T08:00:13.960Z,100422.20
2019-02-17T08:02:44.602Z,100423.25
2019-02-17T08:05:15.412Z,100426.90
2019-02-17T08:07:45.975Z,100425.82
2019-02-17T08:10:16.546Z,100432.23
2019-02-17T08:12:47.118Z,100437.14
2019-02-17T08:15:17.625Z,100435.21
2019-02-17T08:17:48.244Z,100430.79
2019-02-17T08:20:19.242Z,100419.63
2019-02-17T08:22:49.806Z,100424.98
2019-02-17T08:25:22.099Z,100428.81
2019-02-17T08:27:52.761Z,100428.03
2019-02-17T08:30:23.486Z,100424.63
2019-02-17T08:32:54.058Z,100420.03
2019-02-17T08:35:25.101Z,100424.42
2019-02-17T08:37:55.640Z,100422.35
2019-02-17T08:40:26.175Z,100421.13
2019-02-17T08:42:56.938Z,100423.78
2019-02-17T08:45:27.645Z,100424.58
2019-02-17T08:47:59.005Z,100424.23
2019-02-17T08:50:29.769Z,100417.20
2019-02-17T08:53:00.258Z,100419.28
2019-02-17T08:55:30.849Z,100419.66
2019-02-17T08:58:01.499Z,100427.09
2019-02-17T09:00:32.158Z,100433.68
2019-02-17T09:03:02.736Z,100428.13
2019-02-17T09:05:43.627Z,100427.63
2019-02-17T09:08:05.600Z,100431.04
2019-02-17T09:10:36.046Z,100424.82
2019-02-17T09:13:06.739Z,100421.84
2019-02-17T09:15:37.367Z,100425.55
2019-02-17T09:18:07.863Z,100429.52
2019-02-17T09:20:39.471Z,100424.70
2019-02-17T09:23:10.042Z,100423.13
2019-02-17T09:25:40.739Z,100424.98
2019-02-17T09:28:11.270Z,100417.41
2019-02-17T09:30:41.744Z,100420.34
2019-02-17T09:33:12.807Z,100414.83
2019-02-17T09:35:43.384Z,100430.19
2019-02-17T09:38:14.416Z,100429.66
2019-02-17T09:40:44.978Z,100436.77
2019-02-17T09:43:15.663Z,100430.78
2019-02-17T09:45:46.415Z,100428.23
2019-02-17T09:48:17.049Z,100432.55
2019-02-17T09:50:47.663Z,100428.98
2019-02-17T09:53:18.357Z,100431.03
2019-02-17T09:55:49.421Z,100428.92
2019-02-17T09:58:20.002Z,100422.31
2019-02-17T10:00:51.598Z,100422.41
2019-02-17T10:03:23.132Z,100432.16
2019-02-17T10:05:53.893Z,100424.27
2019-02-17T10:08:24.378Z,100424.80
2019-02-17T10:10:55.077Z,100422.09
2019-02-17T10:13:25.539Z,100419.63
2019-02-17T10:15:55.985Z,100422.63
2019-02-17T10:18:26.544Z,100417.72
2019-02-17T10:20:57.238Z,100411.49
2019-02-17T10:23:27.778Z,100419.55
2019-02-17T10:25:58.478Z,100418.71
2019-02-17T10:28:41.848Z,100412.83
2019-02-17T10:31:04.378Z,100418.33
2019-02-17T10:33:34.923Z,100412.23
2019-02-17T10:36:05.679Z,100414.34
2019-02-17T10:38:36.406Z,100415.67
2019-02-17T10:41:06.876Z,100395.39
2019-02-17T10:43:37.456Z,100398.78
2019-02-17T10:46:08.179Z,100398.25
2019-02-17T10:48:38.806Z,100398.61
2019-02-17T10:51:09.498Z,100398.09
2019-02-17T10:53:40.271Z,100398.70
2019-02-17T10:56:11.079Z,100403.13
2019-02-17T10:58:41.966Z,100396.66
2019-02-17T11:01:12.829Z,100391.75
2019-02-17T11:04:06.463Z,100392.95
2019-02-17T11:06:37.200Z,100393.28
2019-02-17T11:09:21.464Z,100390.48
2019-02-17T11:11:53.132Z,100393.16
2019-02-17T11:14:23.958Z,100379.66
2019-02-17T11:16:54.786Z,100380.69
2019-02-17T11:19:25.463Z,100381.08
2019-02-17T11:21:56.238Z,100382.27
2019-02-17T11:24:27.023Z,100370.94
2019-02-17T11:26:57.775Z,100365.91
2019-02-17T11:29:28.565Z,100366.41
2019-02-17T11:31:59.282Z,100363.78
2019-02-17T11:34:29.960Z,100373.22
2019-02-17T11:37:00.582Z,100374.70
2019-02-17T11:39:31.232Z,100373.20
2019-02-17T11:42:01.897Z,100375.84
2019-02-17T11:44:32.556Z,100358.47
2019-02-17T11:47:03.275Z,100364.36
2019-02-17T11:49:33.967Z,100358.56
2019-02-17T11:52:04.659Z,100353.60
2019-02-17T11:54:35.398Z,100350.41
2019-02-17T11:57:06.581Z,100346.41
2019-02-17T11:59:37.243Z,100347.94
2019-02-17T12:02:08.368Z,100341.45
2019-02-17T12:04:39.142Z,100338.02
2019-02-17T12:07:09.801Z,100345.67
2019-02-17T12:09:40.571Z,100342.95
2019-02-17T12:12:13.617Z,100331.84
2019-02-17T12:14:43.619Z,100334.63
2019-02-17T12:17:14.243Z,100331.25
2019-02-17T12:19:44.758Z,100329.08
2019-02-17T12:22:34.255Z,100323.59
2019-02-17T12:25:12.356Z,100332.83
2019-02-17T12:27:56.650Z,100325.11
2019-02-17T12:30:29.478Z,100328.73
2019-02-17T12:33:00.203Z,100317.63
2019-02-17T12:35:30.967Z,100319.06
2019-02-17T12:38:01.784Z,100320.25
2019-02-17T12:40:32.484Z,100320.25
2019-02-17T12:43:03.198Z,100316.61
2019-02-17T12:45:33.800Z,100310.02
2019-02-17T12:48:04.726Z,100319.09
2019-02-17T12:50:35.419Z,100313.03
2019-02-17T12:53:06.208Z,100310.85
2019-02-17T12:55:36.913Z,100311.32
2019-02-17T12:58:07.656Z,100306.67
2019-02-17T13:00:38.425Z,100297.42
2019-02-17T13:03:09.085Z,100291.64
2019-02-17T13:05:39.801Z,100292.67
2019-02-17T13:08:10.290Z,100292.91
2019-02-17T13:10:41.098Z,100287.67
2019-02-17T13:13:11.841Z,100289.17
2019-02-17T13:15:42.600Z,100292.45
2019-02-17T13:18:13.318Z,100292.66
2019-02-17T13:20:44.108Z,100286.83
2019-02-17T13:23:14.824Z,100275.17
2019-02-17T13:25:45.576Z,100276.65
2019-02-17T13:28:16.239Z,100287.83
2019-02-17T13:30:47.037Z,100277.83
2019-02-17T13:33:17.962Z,100279.97
2019-02-17T13:35:48.703Z,100284.63
2019-02-17T13:38:19.287Z,100275.23
2019-02-17T13:40:50.484Z,100280.98
2019-02-17T13:43:21.048Z,100277.61
2019-02-17T13:45:51.723Z,100271.30
2019-02-17T13:48:22.400Z,100269.42
2019-02-17T13:50:53.155Z,100267.94
2019-02-17T13:53:23.963Z,100263.66
2019-02-17T13:55:54.599Z,100271.22
2019-02-17T13:58:25.159Z,100266.99
2019-02-17T14:00:55.818Z,100262.19
2019-02-17T14:03:26.518Z,100259.95
2019-02-17T14:05:57.079Z,100258.38
2019-02-17T14:08:27.705Z,100257.81
2019-02-17T14:10:58.417Z,100255.47
2019-02-17T14:13:28.988Z,100258.31
2019-02-17T14:15:59.584Z,100255.47
2019-02-17T14:18:30.246Z,100257.33
2019-02-17T14:21:00.796Z,100252.06
2019-02-17T14:23:31.363Z,100249.03
2019-02-17T14:26:02.324Z,100247.25
2019-02-17T14:28:33.046Z,100243.10
2019-02-17T14:31:03.962Z,100239.72
2019-02-17T14:33:34.619Z,100241.60
2019-02-17T14:36:05.438Z,100243.30
2019-02-17T14:38:36.140Z,100239.55
2019-02-17T14:41:06.825Z,100237.83
2019-02-17T14:43:37.839Z,100236.95
2019-02-17T14:46:09.703Z,100230.59
2019-02-17T14:48:41.394Z,100237.23
2019-02-17T14:51:12.187Z,100233.50
2019-02-17T14:53:42.669Z,100230.03
2019-02-17T14:56:13.338Z,100234.95
2019-02-17T14:58:44.160Z,100236.31
2019-02-17T15:01:14.944Z,100233.26
2019-02-17T15:03:45.399Z,100225.11
2019-02-17T15:06:15.955Z,100226.55
2019-02-17T15:08:46.567Z,100228.61
2019-02-17T15:11:17.277Z,100226.45
2019-02-17T15:13:47.821Z,100219.88
2019-02-17T15:16:19.678Z,100224.52
2019-02-17T15:18:50.488Z,100220.23
2019-02-17T15:21:21.195Z,100215.38
2019-02-17T15:23:51.854Z,100220.29
2019-02-17T15:26:23.804Z,100212.80
2019-02-17T15:28:55.790Z,100210.33
2019-02-17T15:31:26.443Z,100215.44
2019-02-17T15:33:59.463Z,100213.15
2019-02-17T15:36:30.143Z,100218.38
2019-02-17T15:39:00.830Z,100212.88
2019-02-17T15:41:31.333Z,100215.25
2019-02-17T15:44:01.928Z,100208.77
2019-02-17T15:46:34.644Z,100207.44
2019-02-17T15:49:06.783Z,100201.34
2019-02-17T15:51:37.630Z,100202.50
2019-02-17T15:54:08.429Z,100196.01
2019-02-17T15:56:41.650Z,100192.34
2019-02-17T15:59:13.778Z,100198.42
2019-02-17T16:01:48.143Z,100191.23
2019-02-17T16:04:27.919Z,100189.37
2019-02-17T16:06:51.525Z,100196.52
2019-02-17T16:09:22.370Z,100200.55
2019-02-17T16:11:53.105Z,100202.73
2019-02-17T16:14:25.061Z,100200.13
2019-02-17T16:16:56.213Z,100198.03
2019-02-17T16:19:27.809Z,100205.88
2019-02-17T16:22:01.554Z,100197.05
2019-02-17T16:24:35.976Z,100198.84
2019-02-17T16:27:08.852Z,100202.19
2019-02-17T16:29:39.500Z,100208.03
2019-02-17T16:32:13.503Z,100206.13
2019-02-17T16:34:44.069Z,100210.09
2019-02-17T16:37:17.069Z,100208.88
2019-02-17T16:39:47.858Z,100210.77
2019-02-17T16:42:20.318Z,100204.00
2019-02-17T16:44:52.345Z,100213.20
2019-02-17T16:47:24.423Z,100213.70
2019-02-17T16:49:57.905Z,100218.48
2019-02-17T16:52:28.643Z,100220.06
2019-02-17T16:55:02.469Z,100215.72
2019-02-17T16:57:34.362Z,100214.55
2019-02-17T17:00:06.540Z,100215.09
2019-02-17T17:02:40.810Z,100206.71
2019-02-17T17:05:14.365Z,100210.67
2019-02-17T17:07:50.478Z,100212.33
2019-02-17T17:10:23.131Z,100215.38
2019-02-17T17:12:55.457Z,100221.05
2019-02-17T17:15:29.851Z,100213.20
2019-02-17T17:18:04.140Z,100211.73
2019-02-17T17:20:34.990Z,100212.36
2019-02-17T17:23:13.964Z,100204.56
2019-02-17T17:25:48.015Z,100200.25
2019-02-17T17:28:27.739Z,100213.58
2019-02-17T17:31:02.935Z,100212.95
2019-02-17T17:33:35.449Z,100209.34
2019-02-17T17:36:09.298Z,100211.89
2019-02-17T17:38:40.119Z,100204.23
2019-02-17T17:41:11.395Z,100205.02
2019-02-17T17:43:45.638Z,100211.03
2019-02-17T17:46:18.269Z,100208.08
2019-02-17T17:48:55.552Z,100213.95
2019-02-17T17:51:29.091Z,100214.96
2019-02-17T17:54:05.982Z,100212.15
2019-02-17T17:56:42.221Z,100214.36
2019-02-17T17:59:15.426Z,100210.91
2019-02-17T18:01:52.491Z,100211.50
2019-02-17T18:04:27.059Z,100202.87
2019-02-17T18:07:05.827Z,100208.81
2019-02-17T18:09:36.922Z,100216.78
2019-02-17T18:12:11.250Z,100209.56
2019-02-17T18:14:48.158Z,100209.45
2019-02-17T18:17:20.238Z,100211.02
2019-02-17T18:19:51.016Z,100206.66
2019-02-17T18:22:26.289Z,100208.97
2019-02-17T18:25:00.510Z,100207.89
2019-02-17T18:27:34.576Z,100215.31
2019-02-17T18:30:06.831Z,100216.48
2019-02-17T18:32:41.253Z,100214.77
2019-02-17T18:35:19.749Z,100216.09
2019-02-17T18:37:52.784Z,100218.41
2019-02-17T18:40:23.614Z,100207.88
2019-02-17T18:42:56.507Z,100207.02
2019-02-17T18:45:27.729Z,100216.32
2019-02-17T18:48:00.779Z,100220.73
2019-02-17T18:50:34.342Z,100221.58
2019-02-17T18:53:06.143Z,100213.60
2019-02-17T18:55:40.430Z,100213.07
2019-02-17T18:58:13.725Z,100216.45
2019-02-17T19:00:48.075Z,100217.03
2019-02-17T19:03:19.084Z,100216.42
2019-02-17T19:05:53.560Z,100217.26
2019-02-17T19:08:30.294Z,100215.20
2019-02-17T19:11:02.650Z,100216.87
2019-02-17T19:13:37.798Z,100223.86
2019-02-17T19:16:08.569Z,100216.91
2019-02-17T19:18:43.289Z,100211.29
2019-02-17T19:21:16.538Z,100213.84
2019-02-17T19:23:48.772Z,100210.23
2019-02-17T19:26:25.214Z,100218.50
2019-02-17T19:28:57.092Z,100224.52
2019-02-17T19:31:41.526Z,100219.56
2019-02-17T19:34:14.358Z,100216.63
2019-02-17T19:36:49.370Z,100217.38
2019-02-17T19:39:21.659Z,100217.38
2019-02-17T19:41:57.119Z,100220.51
2019-02-17T19:44:34.052Z,100221.24
2019-02-17T19:47:04.424Z,100225.91
2019-02-17T19:49:36.260Z,100229.53
2019-02-17T19:52:18.821Z,100229.81
2019-02-17T19:54:54.990Z,100223.63
2019-02-17T19:57:26.841Z,100221.03
2019-02-17T20:00:10.727Z,100217.94
2019-02-17T20:02:51.110Z,100221.01
2019-02-17T20:05:28.083Z,100222.70
2019-02-17T20:08:03.715Z,100220.77
2019-02-17T20:10:39.632Z,100216.23
2019-02-17T20:13:14.582Z,100219.47
2019-02-17T20:15:50.969Z,100218.69
2019-02-17T20:18:25.090Z,100219.09
2019-02-17T20:21:01.450Z,100213.42
2019-02-17T20:23:33.756Z,100215.62
2019-02-17T20:26:06.718Z,100212.75
2019-02-17T20:28:43.993Z,100210.05
2019-02-17T20:31:18.563Z,100206.07
2019-02-17T20:33:58.983Z,100206.33
2019-02-17T20:36:36.544Z,100208.65
2019-02-17T20:39:14.950Z,100205.56
2019-02-17T20:41:47.485Z,100205.07
2019-02-17T20:44:19.259Z,100200.93
2019-02-17T20:46:52.607Z,100208.97
2019-02-17T20:49:29.015Z,100203.59
2019-02-17T20:52:01.204Z,100201.93
2019-02-17T20:54:34.338Z,100193.67
2019-02-17T20:57:09.664Z,100194.20
2019-02-17T20:59:46.928Z,100189.66
2019-02-17T21:02:17.693Z,100193.50
2019-02-17T21:04:49.718Z,100190.13
2019-02-17T21:07:21.640Z,100192.94
2019-02-17T21:09:52.490Z,100194.92
2019-02-17T21:12:25.245Z,100196.22
2019-02-17T21:14:55.875Z,100192.93
2019-02-17T21:17:26.600Z,100189.47
2019-02-17T21:20:03.589Z,100192.30
2019-02-17T21:22:35.708Z,100195.16
2019-02-17T21:25:07.323Z,100196.62
2019-02-17T21:27:41.261Z,100197.52
2019-02-17T21:30:13.010Z,100201.41
2019-02-17T21:32:43.835Z,100194.45
2019-02-17T21:35:15.223Z,100196.75
2019-02-17T21:37:45.956Z,100196.63
2019-02-17T21:40:16.647Z,100197.04
2019-02-17T21:42:47.561Z,100190.32
2019-02-17T21:45:18.328Z,100190.32
2019-02-17T21:47:49.039Z,100192.14
2019-02-17T21:50:19.926Z,100195.72
2019-02-17T21:52:50.821Z,100196.37
2019-02-17T21:55:21.966Z,100193.13
2019-02-17T21:57:53.124Z,100193.11
2019-02-17T22:00:23.743Z,100186.70
2019-02-17T22:02:54.364Z,100180.27
2019-02-17T22:05:24.844Z,100182.06
2019-02-17T22:07:55.921Z,100174.89
2019-02-17T22:10:26.546Z,100176.67
2019-02-17T22:12:57.095Z,100175.39
2019-02-17T22:15:27.822Z,100184.38
2019-02-17T22:17:58.967Z,100182.97
2019-02-17T22:20:29.603Z,100185.16
2019-02-17T22:23:00.346Z,100177.16
2019-02-17T22:25:31.098Z,100174.58
2019-02-17T22:28:01.844Z,100175.23
2019-02-17T22:30:32.514Z,100179.70
2019-02-17T22:33:03.203Z,100176.33
2019-02-17T22:35:33.887Z,100173.25
2019-02-17T22:38:04.606Z,100174.11
2019-02-17T22:40:35.498Z,100172.92
2019-02-17T22:43:06.194Z,100171.38
2019-02-17T22:45:36.986Z,100175.82
2019-02-17T22:48:07.730Z,100165.79
2019-02-17T22:50:38.521Z,100168.17
2019-02-17T22:53:09.107Z,100182.28
2019-02-17T22:55:39.766Z,100181.72
2019-02-17T22:58:10.746Z,100174.91
2019-02-17T23:01:00.458Z,100178.06
2019-02-17T23:03:32.051Z,100178.58
2019-02-17T23:06:03.844Z,100176.72
2019-02-17T23:08:34.478Z,100181.94
2019-02-17T23:11:05.238Z,100185.73
2019-02-17T23:13:35.919Z,100188.12
2019-02-17T23:16:06.615Z,100180.36
2019-02-17T23:18:37.176Z,100180.84
2019-02-17T23:21:07.715Z,100177.29
2019-02-17T23:23:38.508Z,100179.91
2019-02-17T23:26:09.061Z,100182.24
2019-02-17T23:28:39.978Z,100184.95
2019-02-17T23:31:10.658Z,100181.70
2019-02-17T23:33:41.126Z,100185.66
2019-02-17T23:36:11.675Z,100177.94
2019-02-17T23:38:42.288Z,100172.59
2019-02-17T23:41:12.866Z,100173.09
2019-02-17T23:43:43.379Z,100170.08
2019-02-17T23:46:13.987Z,100168.50
2019-02-17T23:48:44.718Z,100170.56
2019-02-17T23:51:15.466Z,100167.38
2019-02-17T23:53:46.146Z,100165.81
2019-02-17T23:56:17.206Z,100167.51
2019-02-17T23:58:47.758Z,100165.16
